createdAt,value
2018-09-09T20:06:36.631Z,61.89
2018-09-09T20:09:39.626Z,60.65
2018-09-09T20:12:42.597Z,61.76
2018-09-09T20:15:45.666Z,61.49
2018-09-09T20:18:48.693Z,61.93
2018-09-09T20:21:51.697Z,61.58
2018-09-09T20:24:54.701Z,61.95
2018-09-09T20:27:57.694Z,63.83
2018-09-09T20:31:00.994Z,62.27
2018-09-09T20:34:04.057Z,63.27
2018-09-09T20:37:07.134Z,63.25
2018-09-09T20:40:10.142Z,63.00
2018-09-09T20:43:13.114Z,62.62
2018-09-09T20:46:16.102Z,63.22
2018-09-09T20:49:19.077Z,63.29
2018-09-09T20:52:22.082Z,63.54
2018-09-09T20:55:25.249Z,64.18
2018-09-09T20:58:28.269Z,63.81
2018-09-09T21:01:31.347Z,65.31
2018-09-09T21:04:34.426Z,64.66
2018-09-09T21:07:37.542Z,64.40
2018-09-09T21:10:40.673Z,64.79
2018-09-09T21:13:43.697Z,64.77
2018-09-09T21:16:46.749Z,65.22
2018-09-09T21:19:49.767Z,64.10
2018-09-09T21:22:52.814Z,64.75
2018-09-09T21:25:55.857Z,65.32
2018-09-09T21:28:59.818Z,65.65
2018-09-09T21:32:02.981Z,64.92
2018-09-09T21:35:06.110Z,65.35
2018-09-09T21:38:09.145Z,65.30
2018-09-09T21:41:12.161Z,65.05
2018-09-09T21:44:15.134Z,65.67
2018-09-09T21:47:18.179Z,66.73
2018-09-09T21:50:21.166Z,67.19
2018-09-09T21:53:24.153Z,67.00
2018-09-09T21:56:27.130Z,66.40
2018-09-09T21:59:30.104Z,66.31
2018-09-09T22:02:33.090Z,67.37
2018-09-09T22:05:36.150Z,66.31
2018-09-09T22:08:39.166Z,66.42
2018-09-09T22:11:42.154Z,66.47
2018-09-09T22:14:45.141Z,66.25
2018-09-09T22:17:48.165Z,67.07
2018-09-09T22:20:51.140Z,66.99
2018-09-09T22:23:54.158Z,67.03
2018-09-09T22:26:57.137Z,67.14
2018-09-09T22:30:00.133Z,68.20
2018-09-09T22:33:03.148Z,67.24
2018-09-09T22:36:06.143Z,67.34
2018-09-09T22:39:10.114Z,67.80
2018-09-09T22:42:13.094Z,67.66
2018-09-09T22:45:16.123Z,67.26
2018-09-09T22:48:19.826Z,67.80
2018-09-09T22:51:22.841Z,67.77
2018-09-09T22:54:25.879Z,68.27
2018-09-09T22:57:28.885Z,68.80
2018-09-09T23:00:31.878Z,68.62
2018-09-09T23:03:34.861Z,69.34
2018-09-09T23:06:37.833Z,69.53
2018-09-09T23:09:40.853Z,69.44
2018-09-09T23:12:43.852Z,68.99
2018-09-09T23:15:46.899Z,69.93
2018-09-09T23:18:49.954Z,69.94
2018-09-09T23:21:52.921Z,70.87
2018-09-09T23:24:55.915Z,70.86
2018-09-09T23:27:58.909Z,70.45
2018-09-09T23:31:01.874Z,70.43
2018-09-09T23:34:04.857Z,70.48
2018-09-09T23:37:07.849Z,71.05
2018-09-09T23:40:10.857Z,71.90
2018-09-09T23:43:13.865Z,72.08
2018-09-09T23:46:16.853Z,71.68
2018-09-09T23:49:19.857Z,71.14
2018-09-09T23:52:22.825Z,71.58
2018-09-09T23:55:25.831Z,71.34
2018-09-09T23:58:28.805Z,72.23
